Startpagina
METAR-TAF:

METAR-TAF

Vliegvelden :

Rivas, Nicaragua

breedte: 11-25N, lengte: 085-50W, hoogte: 53 m

Actueel weer

Dit bericht is 48 minuten geleden gemaakt, om 19:00 UTC
Wind 4 kt uit het noordnoordoosten
Temperatuur 31°C
Vochtigheid 75%
Druk 1009 hPa
Zicht 10 km of meer
Weinig wolken op 1600 ft, Cumulonimbus.
Gebroken wolken op 20000 ft

METAR: MNRS 171900Z 02004KT 9999 FEW016CB BKN200 31/26 Q1009 CB NE E SE S

Tijdstip: 13:48 (19:48 UTC)


TAF: ontbreekt

Waarnemingen en weersverwachtingen van meer dan 4000 vliegvelden (METAR en TAF).

De beschikbare stations zijn de gele en rode punten op de kaart.

Ga met uw muis naar het station om de naam te zien.

Klik dan om waarnemingen en weersverwachtingen te zien.

kaart wijzigen: klik op de groene knoppen met een zwart kruis om in te zoomen, op de groene knop met een streepje om uit te zoomen of op de groene pijlen voor aangrenzende kaarten.


METAR-TAF: